Terminal Aerodrome Forecast
Issued by NWS

Home | Current Version | Previous Version | Text Only | Print | Product List | Glossary On
Versions: 1 2 3 4 5 6 7 8 9 10 11 12 13
000
FTUS42 KMLB 260203 AAA
TAFLEE
TAF AMD
KLEE 260203Z 2602/2624 VRB05KT P6SM VCSH SCT035 BKN060
      TEMPO 2602/2604 3SM SHRA BKN035
     FM260400 VRB02KT P6SM FEW035 SCT060
     FM261600 17006KT P6SM SCT035
     FM262000 16007KT P6SM VCTS SCT040CB SCT100=

USA.gov is the U.S. government's official web portal to all federal, state and local government web resources and services.